Time;durP1;ratioP1;P1;durP2;ratioP2;P2;SDS_P1;SDS_P2;PMS_P1;PMS_P2;Temp;Humidity;BMP_temperature;BMP_pressure;BME280_temperature;BME280_humidity;BME280_pressure;Samples;Min_cycle;Max_cycle;Signal;HPM_P1;HPM_P2
2022/01/03 00:01:10;;;;;;;0.50;0.28;;;10.40;85.10;;;;;;5009534;28;20050;-73
2022/01/03 00:03:38;;;;;;;1.08;0.35;;;10.40;85.10;;;;;;5013109;28;20046;-70
2022/01/03 00:06:12;;;;;;;1.45;0.47;;;10.40;85.30;;;;;;4931757;28;20099;-74
2022/01/03 00:08:44;;;;;;;1.80;0.35;;;10.30;85.40;;;;;;411955;28;10023839;-71
2022/01/03 00:11:14;;;;;;;;;;;10.30;85.60;;;;;;5010682;28;20493;-70
2022/01/03 00:13:50;;;;;;;1.25;0.40;;;10.40;85.50;;;;;;5011148;28;20288;-71
2022/01/03 00:16:17;;;;;;;0.30;0.20;;;10.30;85.60;;;;;;5012076;28;20571;-72
2022/01/03 00:18:52;;;;;;;0.80;0.30;;;10.30;85.60;;;;;;5012472;28;20084;-71
2022/01/03 00:21:26;;;;;;;1.80;0.13;;;10.30;85.70;;;;;;5011908;28;20451;-71
2022/01/03 00:24:06;;;;;;;0.25;0.10;;;10.40;85.70;;;;;;5010814;28;20046;-71
2022/01/03 00:26:35;;;;;;;0.85;0.50;;;10.30;85.80;;;;;;5011811;28;20052;-71
2022/01/03 00:29:09;;;;;;;1.17;0.28;;;10.30;85.90;;;;;;5010196;28;20411;-71
2022/01/03 00:31:38;;;;;;;0.80;0.10;;;10.20;85.90;;;;;;5010608;28;20053;-71
2022/01/03 00:34:06;;;;;;;2.58;0.20;;;10.30;85.90;;;;;;5010945;28;20042;-73
2022/01/03 00:36:35;;;;;;;0.70;0.20;;;10.20;85.90;;;;;;5007886;28;20046;-72
2022/01/03 00:39:04;;;;;;;0.30;0.20;;;10.20;86.00;;;;;;5009633;28;20049;-73
2022/01/03 00:41:31;;;;;;;0.20;0.10;;;10.20;85.90;;;;;;5009354;28;20484;-72
2022/01/03 00:43:58;;;;;;;0.68;0.10;;;10.20;85.90;;;;;;5010106;28;20049;-72
2022/01/03 00:46:27;;;;;;;1.55;0.38;;;10.10;85.90;;;;;;5009845;28;20042;-70
2022/01/03 00:48:55;;;;;;;0.50;0.20;;;10.10;86.00;;;;;;5011110;28;20049;-70
2022/01/03 00:51:23;;;;;;;0.75;0.32;;;10.10;86.00;;;;;;5009909;28;20065;-73
2022/01/03 00:53:51;;;;;;;2.75;0.30;;;10.00;86.00;;;;;;5010253;28;20550;-72
2022/01/03 00:56:25;;;;;;;0.65;0.15;;;10.00;86.10;;;;;;5009185;28;20179;-71
2022/01/03 00:58:55;;;;;;;2.05;0.38;;;10.00;86.10;;;;;;5008789;28;20177;-69
2022/01/03 01:01:24;;;;;;;0.52;0.10;;;10.00;86.10;;;;;;5007279;28;20046;-72
2022/01/03 01:03:54;;;;;;;0.20;0.10;;;10.00;86.00;;;;;;5010199;28;20050;-70
2022/01/03 01:06:22;;;;;;;0.47;0.10;;;10.00;86.00;;;;;;5009576;28;20216;-74
2022/01/03 01:08:57;;;;;;;0.47;0.10;;;9.90;86.00;;;;;;5009536;28;20037;-71
2022/01/03 01:11:29;;;;;;;0.10;0.10;;;9.90;86.00;;;;;;5008353;28;20061;-73
2022/01/03 01:13:57;;;;;;;0.30;0.10;;;9.90;85.90;;;;;;4993350;28;20058;-70
2022/01/03 01:16:25;;;;;;;0.35;0.15;;;9.90;85.90;;;;;;4993423;28;20050;-71
2022/01/03 01:18:53;;;;;;;1.90;0.13;;;9.90;85.90;;;;;;5009483;28;20042;-73
2022/01/03 01:21:23;;;;;;;0.10;0.10;;;9.80;85.90;;;;;;5009949;28;20048;-72
2022/01/03 01:23:56;;;;;;;1.00;0.32;;;9.80;86.00;;;;;;4993235;28;20054;-71
2022/01/03 01:29:11;;;;;;;0.65;0.20;;;9.70;86.40;;;;;;4993160;28;20053;-71
2022/01/03 01:31:45;;;;;;;0.28;0.20;;;9.70;86.50;;;;;;5010123;28;20054;-73
2022/01/03 01:34:15;;;;;;;0.52;0.22;;;9.70;86.60;;;;;;5010371;28;20073;-73
2022/01/03 01:36:46;;;;;;;0.40;0.30;;;9.70;86.50;;;;;;5011341;28;20042;-72
2022/01/03 01:39:16;;;;;;;2.15;0.70;;;9.70;86.40;;;;;;5004982;28;20515;-72
2022/01/03 01:41:47;;;;;;;0.60;0.30;;;9.70;86.50;;;;;;5008789;28;20164;-70
2022/01/03 01:44:17;;;;;;;0.13;0.13;;;9.70;86.40;;;;;;5007953;28;20050;-71
2022/01/03 01:46:48;;;;;;;0.57;0.28;;;9.70;86.50;;;;;;5009539;28;20068;-71
2022/01/03 01:49:18;;;;;;;1.30;0.40;;;9.70;86.60;;;;;;4993408;28;20435;-72
2022/01/03 01:51:56;;;;;;;1.17;0.30;;;9.60;86.60;;;;;;5008979;28;20119;-71
2022/01/03 01:54:30;;;;;;;0.93;0.22;;;9.60;86.80;;;;;;5008699;28;20046;-74
2022/01/03 01:57:09;;;;;;;1.65;0.38;;;9.60;86.80;;;;;;5009225;28;20096;-70
2022/01/03 01:59:55;;;;;;;1.85;0.43;;;9.60;86.90;;;;;;5008284;28;20140;-71
2022/01/03 02:02:32;;;;;;;1.20;0.43;;;9.60;87.00;;;;;;5004148;28;20136;-73
2022/01/03 02:05:16;;;;;;;1.55;0.57;;;9.60;87.10;;;;;;5007503;28;20052;-71
2022/01/03 02:08:04;;;;;;;0.93;0.20;;;9.70;87.40;;;;;;5007843;28;20451;-73
2022/01/03 02:10:41;;;;;;;0.80;0.30;;;9.70;87.60;;;;;;5008539;28;20132;-71
2022/01/03 02:13:09;;;;;;;;;;;9.70;87.70;;;;;;4992370;28;20034;-70
2022/01/03 02:15:37;;;;;;;0.30;0.30;;;9.70;87.90;;;;;;5008529;28;19971;-72
2022/01/03 02:18:07;;;;;;;;;;;9.70;88.00;;;;;;5007609;28;20054;-70
2022/01/03 02:20:36;;;;;;;1.08;0.30;;;9.70;88.00;;;;;;5007005;28;19972;-72
2022/01/03 02:23:07;;;;;;;2.33;0.40;;;9.70;88.00;;;;;;5006861;28;20042;-71
2022/01/03 02:25:37;;;;;;;0.77;0.50;;;9.70;88.10;;;;;;5006360;28;20046;-71
2022/01/03 02:28:05;;;;;;;2.97;0.50;;;9.80;88.20;;;;;;5008907;28;20034;-71
2022/01/03 02:30:35;;;;;;;1.90;0.30;;;9.80;88.20;;;;;;5006999;28;20060;-72
2022/01/03 02:33:02;;;;;;;1.85;0.50;;;9.80;88.20;;;;;;5008108;28;20147;-71
2022/01/03 02:35:29;;;;;;;3.03;0.55;;;9.80;88.30;;;;;;5005726;28;20445;-71
2022/01/03 02:37:58;;;;;;;3.15;0.30;;;9.90;88.40;;;;;;5005538;28;20064;-72
2022/01/03 02:40:25;;;;;;;2.50;0.80;;;9.90;88.50;;;;;;5003606;28;20053;-70
2022/01/03 02:42:55;;;;;;;3.35;0.82;;;9.90;88.50;;;;;;4990175;28;20052;-71
2022/01/03 02:45:25;;;;;;;;;;;9.90;88.50;;;;;;5004221;28;20045;-71
2022/01/03 02:47:57;;;;;;;1.27;0.63;;;9.90;88.50;;;;;;4990822;28;19933;-70
2022/01/03 02:50:26;;;;;;;3.25;0.60;;;9.90;88.50;;;;;;5007980;28;20053;-72
2022/01/03 02:52:54;;;;;;;2.38;0.57;;;9.90;88.40;;;;;;4990133;28;20100;-71
2022/01/03 02:55:26;;;;;;;2.53;0.63;;;9.90;88.20;;;;;;5007574;28;20454;-71
2022/01/03 02:57:56;;;;;;;1.65;0.40;;;9.90;88.10;;;;;;5008170;28;20057;-71
2022/01/03 03:00:27;;;;;;;1.42;0.40;;;9.90;87.80;;;;;;5005016;28;20120;-71
2022/01/03 03:02:55;;;;;;;1.13;0.30;;;9.90;87.70;;;;;;4991306;28;20592;-71
2022/01/03 03:05:24;;;;;;;2.38;0.28;;;9.90;87.60;;;;;;5007825;28;20042;-70
2022/01/03 03:07:53;;;;;;;3.85;0.75;;;9.90;87.30;;;;;;5009135;28;20133;-72
2022/01/03 03:10:21;;;;;;;0.82;0.22;;;9.90;87.20;;;;;;5006736;28;20050;-72
2022/01/03 03:12:52;;;;;;;1.02;0.40;;;9.90;87.20;;;;;;4991683;28;20057;-70
2022/01/03 03:15:19;;;;;;;1.52;0.57;;;9.90;87.10;;;;;;5007910;28;20050;-70
2022/01/03 03:17:48;;;;;;;2.10;0.47;;;9.90;87.10;;;;;;4991284;28;20480;-71
2022/01/03 03:20:17;;;;;;;2.08;0.40;;;9.90;87.20;;;;;;5007501;28;20060;-71
2022/01/03 03:22:49;;;;;;;1.45;0.32;;;9.90;87.10;;;;;;5009705;28;20049;-71
2022/01/03 03:25:19;;;;;;;1.20;0.50;;;9.90;87.10;;;;;;5008046;28;20120;-71
2022/01/03 03:27:48;;;;;;;2.45;0.52;;;9.90;87.20;;;;;;5007727;28;20049;-73
2022/01/03 03:30:23;;;;;;;0.80;0.20;;;9.90;87.10;;;;;;5008165;28;20100;-72
2022/01/03 03:32:53;;;;;;;3.60;0.38;;;9.90;87.10;;;;;;5008415;28;20089;-71
2022/01/03 03:35:21;;;;;;;3.08;0.40;;;9.80;87.20;;;;;;4995081;28;20050;-72
2022/01/03 03:37:48;;;;;;;2.10;0.25;;;9.90;87.10;;;;;;4991521;28;20046;-72
2022/01/03 03:40:16;;;;;;;3.08;0.80;;;9.80;87.10;;;;;;5009989;28;20155;-72
2022/01/03 03:42:43;;;;;;;0.98;0.40;;;9.90;87.10;;;;;;4994142;28;20776;-71
2022/01/03 03:45:12;;;;;;;0.57;0.20;;;9.90;87.00;;;;;;5009192;28;20049;-72
2022/01/03 03:47:42;;;;;;;0.30;0.20;;;9.90;86.80;;;;;;5011127;28;20294;-71
2022/01/03 03:50:11;;;;;;;3.97;0.30;;;9.90;86.60;;;;;;5010369;28;20472;-72
2022/01/03 03:52:38;;;;;;;5.15;0.60;;;9.90;86.60;;;;;;4994230;28;20133;-73
2022/01/03 03:55:07;;;;;;;2.03;0.30;;;9.90;86.50;;;;;;4994001;28;20133;-72
2022/01/03 03:57:34;;;;;;;2.45;0.63;;;9.90;86.50;;;;;;5009273;28;20060;-73
2022/01/03 04:00:04;;;;;;;0.93;0.38;;;9.90;86.50;;;;;;4990497;28;20085;-72
2022/01/03 04:02:41;;;;;;;2.67;0.50;;;9.90;86.40;;;;;;5008667;28;20073;-74
2022/01/03 04:05:12;;;;;;;1.92;0.93;;;9.80;86.30;;;;;;5010441;28;20050;-72
2022/01/03 04:07:40;;;;;;;1.42;0.40;;;9.90;86.20;;;;;;4992360;28;20045;-71
2022/01/03 04:10:10;;;;;;;1.05;0.22;;;9.90;86.00;;;;;;5009930;28;20496;-70
2022/01/03 04:12:40;;;;;;;0.65;0.25;;;9.80;85.90;;;;;;4993377;28;20172;-71
2022/01/03 04:15:10;;;;;;;2.05;0.55;;;9.80;85.80;;;;;;5008268;28;20104;-72
2022/01/03 04:17:38;;;;;;;1.00;0.20;;;9.80;85.60;;;;;;5008462;28;20049;-70
2022/01/03 04:20:08;;;;;;;2.28;0.32;;;9.80;85.60;;;;;;5010309;28;20053;-71
2022/01/03 04:22:35;;;;;;;4.45;0.50;;;9.90;85.60;;;;;;5008993;28;20054;-72
2022/01/03 04:25:02;;;;;;;1.85;0.35;;;9.80;85.40;;;;;;5010468;28;20115;-72
2022/01/03 04:27:29;;;;;;;0.75;0.28;;;9.90;85.30;;;;;;5008232;28;20056;-71
2022/01/03 04:29:56;;;;;;;1.60;0.10;;;9.90;85.30;;;;;;4993173;28;20057;-71
2022/01/03 04:32:23;;;;;;;1.25;0.40;;;9.80;85.30;;;;;;5009544;28;20053;-71
2022/01/03 04:34:50;;;;;;;1.10;0.47;;;9.80;85.30;;;;;;5010924;28;20100;-70
2022/01/03 04:37:20;;;;;;;2.20;0.30;;;9.80;85.10;;;;;;5008833;28;20041;-72
2022/01/03 04:39:47;;;;;;;7.03;0.52;;;9.90;85.10;;;;;;5002636;28;20045;-70
2022/01/03 04:42:15;;;;;;;0.82;0.22;;;9.80;85.20;;;;;;4993980;28;20054;-71
2022/01/03 04:44:43;;;;;;;1.85;0.47;;;9.80;85.10;;;;;;5008883;28;20060;-71
2022/01/03 04:47:10;;;;;;;3.05;0.47;;;9.90;85.10;;;;;;5007687;28;20153;-71
2022/01/03 04:49:38;;;;;;;2.65;0.50;;;9.80;85.10;;;;;;5009068;28;20072;-70
2022/01/03 04:52:05;;;;;;;2.92;0.50;;;9.80;85.20;;;;;;5011164;28;20046;-71
2022/01/03 04:54:36;;;;;;;5.32;1.27;;;9.80;85.10;;;;;;5008415;28;20100;-72
2022/01/03 04:57:04;;;;;;;1.15;0.32;;;9.80;85.20;;;;;;5010230;28;20049;-74
2022/01/03 04:59:33;;;;;;;3.95;0.40;;;9.80;85.10;;;;;;4992235;28;20050;-71
2022/01/03 05:02:03;;;;;;;5.50;0.40;;;9.80;85.20;;;;;;5008720;28;20038;-70
2022/01/03 05:04:34;;;;;;;0.88;0.32;;;9.80;85.20;;;;;;4994297;28;20053;-72
2022/01/03 05:07:02;;;;;;;2.08;0.20;;;9.80;85.20;;;;;;4993406;28;20061;-70
2022/01/03 05:09:33;;;;;;;1.33;0.28;;;9.70;85.20;;;;;;5009085;28;20574;-71
2022/01/03 05:12:03;;;;;;;2.97;0.40;;;9.80;85.20;;;;;;5006740;28;20120;-71
2022/01/03 05:14:30;;;;;;;1.30;0.30;;;9.70;85.30;;;;;;5009950;28;20060;-71
2022/01/03 05:16:57;;;;;;;3.38;0.52;;;9.80;85.30;;;;;;5010683;28;20057;-70
2022/01/03 05:19:25;;;;;;;1.08;0.30;;;9.70;85.20;;;;;;5006957;28;20054;-72
2022/01/03 05:21:52;;;;;;;3.38;0.30;;;9.70;85.30;;;;;;5011185;28;20045;-71
2022/01/03 05:24:19;;;;;;;2.58;0.50;;;9.70;85.20;;;;;;5010815;28;20460;-71
2022/01/03 05:26:46;;;;;;;2.67;0.57;;;9.70;85.20;;;;;;5009793;28;20144;-70
2022/01/03 05:29:17;;;;;;;0.93;0.30;;;9.70;85.20;;;;;;5005889;28;20131;-71
2022/01/03 05:31:44;;;;;;;4.55;0.35;;;9.70;85.10;;;;;;5010534;28;20050;-71
2022/01/03 05:34:11;;;;;;;2.72;0.32;;;9.70;85.10;;;;;;5008544;28;20054;-72
2022/01/03 05:36:39;;;;;;;1.55;0.63;;;9.70;85.10;;;;;;5007733;28;20068;-72
2022/01/03 05:39:06;;;;;;;1.42;0.20;;;9.70;85.10;;;;;;5005829;28;20141;-73
2022/01/03 05:41:33;;;;;;;1.60;0.20;;;9.70;85.10;;;;;;5007973;28;20461;-71
2022/01/03 05:44:01;;;;;;;3.95;0.40;;;9.70;85.00;;;;;;5008227;28;20041;-73
2022/01/03 05:46:31;;;;;;;1.33;0.35;;;9.70;85.00;;;;;;4991071;28;20538;-72
2022/01/03 05:48:59;;;;;;;1.58;0.47;;;9.70;85.00;;;;;;5007404;28;20046;-71
2022/01/03 05:51:26;;;;;;;1.45;0.20;;;9.70;85.00;;;;;;5007267;28;20103;-71
2022/01/03 05:53:53;;;;;;;0.55;0.20;;;9.70;84.80;;;;;;5006614;28;20401;-71
2022/01/03 05:56:21;;;;;;;2.15;0.40;;;9.60;84.80;;;;;;5006228;28;20367;-73
2022/01/03 05:58:49;;;;;;;3.92;0.73;;;9.60;84.70;;;;;;4999057;28;20411;-70
2022/01/03 06:01:17;;;;;;;1.42;0.30;;;9.60;84.70;;;;;;4988278;28;20038;-74
2022/01/03 06:03:45;;;;;;;2.80;0.22;;;9.60;84.70;;;;;;5008260;28;20073;-73
2022/01/03 06:06:30;;;;;;;1.27;0.20;;;9.50;84.80;;;;;;5007968;28;20056;-72
2022/01/03 06:08:58;;;;;;;3.47;0.50;;;9.50;84.90;;;;;;5006886;28;20069;-73
2022/01/03 06:11:25;;;;;;;2.95;0.30;;;9.50;84.80;;;;;;4973411;28;20065;-72
2022/01/03 06:13:52;;;;;;;3.63;0.50;;;9.50;84.80;;;;;;4969583;28;20457;-71
2022/01/03 06:16:19;;;;;;;5.85;0.38;;;9.50;84.80;;;;;;4986589;28;20640;-71
2022/01/03 06:18:48;;;;;;;3.97;0.40;;;9.40;84.80;;;;;;4986250;28;20134;-73
2022/01/03 06:21:15;;;;;;;4.07;0.25;;;9.40;84.70;;;;;;4969014;28;20082;-72
2022/01/03 06:23:46;;;;;;;0.20;0.10;;;9.40;84.70;;;;;;4970000;28;20058;-72
2022/01/03 06:26:13;;;;;;;2.92;0.10;;;9.40;84.70;;;;;;4968877;28;20055;-72
2022/01/03 06:28:44;;;;;;;2.85;0.30;;;9.40;84.60;;;;;;4968879;28;20050;-72
2022/01/03 06:31:13;;;;;;;0.45;0.20;;;9.30;84.40;;;;;;4970049;28;20050;-73
2022/01/03 06:33:40;;;;;;;2.90;0.40;;;9.30;84.30;;;;;;4985042;28;20133;-70
2022/01/03 06:36:09;;;;;;;1.67;0.28;;;9.30;84.30;;;;;;4985314;28;20054;-71
2022/01/03 06:38:36;;;;;;;2.00;0.38;;;9.30;84.20;;;;;;4968630;28;20077;-72
2022/01/03 06:41:05;;;;;;;0.82;0.20;;;9.20;84.20;;;;;;4969330;28;20485;-70
2022/01/03 06:43:32;;;;;;;2.72;0.40;;;9.20;84.30;;;;;;4969252;28;20126;-71
2022/01/03 06:45:59;;;;;;;2.88;0.50;;;9.20;84.20;;;;;;4969050;28;20049;-72
2022/01/03 06:48:26;;;;;;;1.55;0.30;;;9.20;84.10;;;;;;4969475;28;20137;-72
2022/01/03 06:50:54;;;;;;;3.10;0.38;;;9.20;84.10;;;;;;4969136;28;20050;-70
2022/01/03 06:53:22;;;;;;;1.45;0.47;;;9.20;84.20;;;;;;4968271;28;20055;-72
2022/01/03 06:55:49;;;;;;;2.70;0.57;;;9.10;84.00;;;;;;4968865;28;20449;-71
2022/01/03 06:58:17;;;;;;;2.88;0.50;;;9.10;84.10;;;;;;4969331;28;20084;-70
2022/01/03 07:00:45;;;;;;;2.22;0.47;;;9.10;84.20;;;;;;4982497;28;20053;-71
2022/01/03 07:03:13;;;;;;;1.17;0.75;;;9.10;84.20;;;;;;4968956;28;20047;-72
2022/01/03 07:05:39;;;;;;;1.75;0.30;;;9.10;84.30;;;;;;4967246;28;20046;-71
2022/01/03 07:08:07;;;;;;;1.70;0.38;;;9.10;84.40;;;;;;4970367;28;20209;-72
2022/01/03 07:10:35;;;;;;;2.35;0.50;;;9.10;84.30;;;;;;4977082;28;20058;-72
2022/01/03 07:13:08;;;;;;;2.20;0.30;;;9.10;84.30;;;;;;4986198;28;20082;-71
2022/01/03 07:21:03;;;;;;;2.53;0.40;;;9.10;84.40;;;;;;4987967;28;20038;-72
2022/01/03 07:23:30;;;;;;;2.72;0.65;;;9.10;84.50;;;;;;4988239;28;20125;-71
2022/01/03 07:25:59;;;;;;;1.67;0.25;;;9.10;84.50;;;;;;4986975;28;20504;-70
2022/01/03 07:28:25;;;;;;;2.47;0.57;;;9.10;84.50;;;;;;4988500;28;20038;-72
2022/01/03 07:30:52;;;;;;;6.93;0.50;;;9.10;84.50;;;;;;4987688;28;20058;-72
2022/01/03 07:33:19;;;;;;;1.05;0.15;;;9.10;84.50;;;;;;4987965;28;20121;-74
2022/01/03 07:35:46;;;;;;;3.83;0.40;;;9.00;84.60;;;;;;4987296;28;20239;-72
2022/01/03 07:38:13;;;;;;;2.92;0.30;;;9.00;84.70;;;;;;4985559;28;20046;-71
2022/01/03 07:40:41;;;;;;;0.90;0.20;;;9.00;84.80;;;;;;4986822;28;20053;-71
2022/01/03 07:43:09;;;;;;;3.17;0.47;;;9.10;84.90;;;;;;4986834;28;20520;-73
2022/01/03 07:45:36;;;;;;;3.25;0.60;;;9.10;85.00;;;;;;4988979;28;20066;-72
2022/01/03 07:48:03;;;;;;;0.80;0.28;;;9.10;85.00;;;;;;4987109;28;20121;-72
2022/01/03 07:50:31;;;;;;;4.05;0.47;;;9.10;85.00;;;;;;4988129;28;20129;-74
2022/01/03 07:52:59;;;;;;;4.75;0.40;;;9.10;85.10;;;;;;4989388;28;20046;-71
2022/01/03 07:55:27;;;;;;;1.25;0.32;;;9.10;85.20;;;;;;4989479;28;20089;-71
2022/01/03 07:57:54;;;;;;;1.75;0.90;;;9.10;85.30;;;;;;4988038;28;20056;-70
2022/01/03 08:00:22;;;;;;;1.17;0.50;;;9.10;85.40;;;;;;4987097;28;20379;-71
2022/01/03 08:02:49;;;;;;;2.55;0.77;;;9.10;85.40;;;;;;4989842;28;20050;-72
2022/01/03 08:05:17;;;;;;;3.05;0.50;;;9.10;85.40;;;;;;4989303;28;20042;-72
2022/01/03 08:07:46;;;;;;;2.28;0.43;;;9.10;85.40;;;;;;4989227;28;20058;-72
2022/01/03 08:10:14;;;;;;;2.75;0.30;;;9.20;85.50;;;;;;4993502;28;20424;-73
2022/01/03 08:12:42;;;;;;;6.22;0.50;;;9.20;85.40;;;;;;5008550;28;20499;-71
2022/01/03 08:15:09;;;;;;;3.13;0.60;;;9.20;85.40;;;;;;5008937;28;20116;-72
2022/01/03 08:17:38;;;;;;;3.55;0.93;;;9.20;85.50;;;;;;5009148;28;20046;-71
2022/01/03 08:20:06;;;;;;;1.88;0.40;;;9.20;85.40;;;;;;5007839;28;20064;-73
2022/01/03 08:22:33;;;;;;;1.45;0.20;;;9.30;85.40;;;;;;5012666;28;20052;-72
2022/01/03 08:25:00;;;;;;;6.78;0.60;;;9.30;85.40;;;;;;5012612;28;20042;-72
2022/01/03 08:27:27;;;;;;;2.75;0.40;;;9.30;85.50;;;;;;5011602;28;20402;-71
2022/01/03 08:29:54;;;;;;;1.27;0.30;;;9.40;85.50;;;;;;5013072;28;20052;-70
2022/01/03 08:32:22;;;;;;;2.22;0.40;;;9.40;85.60;;;;;;5011877;28;20041;-71
2022/01/03 08:34:51;;;;;;;2.17;0.45;;;9.40;85.60;;;;;;5008871;28;20137;-71
2022/01/03 08:37:17;;;;;;;4.32;0.47;;;9.40;85.60;;;;;;5009388;28;20042;-72
2022/01/03 08:39:44;;;;;;;4.40;0.50;;;9.40;85.60;;;;;;5011228;28;20046;-72
2022/01/03 08:42:11;;;;;;;3.42;0.52;;;9.50;85.70;;;;;;5011056;28;20052;-72
2022/01/03 08:44:38;;;;;;;4.00;0.50;;;9.50;85.70;;;;;;5011071;28;20052;-72
2022/01/03 08:47:06;;;;;;;2.75;0.50;;;9.50;85.70;;;;;;5011416;28;20508;-72
2022/01/03 08:49:33;;;;;;;2.80;0.50;;;9.50;85.60;;;;;;5011304;28;20041;-71
2022/01/03 08:52:02;;;;;;;7.60;1.77;;;9.50;85.70;;;;;;5011881;28;20050;-72
2022/01/03 08:54:28;;;;;;;6.43;1.70;;;9.50;85.70;;;;;;5008800;28;20470;-71
2022/01/03 08:56:55;;;;;;;9.68;3.03;;;9.60;85.70;;;;;;5009985;28;20140;-71
2022/01/03 08:59:22;;;;;;;6.72;2.10;;;9.60;85.70;;;;;;5009860;28;20399;-72
2022/01/03 09:01:49;;;;;;;6.90;2.05;;;9.60;85.70;;;;;;5007714;28;20046;-71
2022/01/03 09:04:16;;;;;;;3.72;1.75;;;9.70;85.70;;;;;;5008793;28;20149;-72
2022/01/03 09:06:43;;;;;;;4.38;1.50;;;9.60;85.60;;;;;;5009803;28;20096;-71
2022/01/03 09:09:12;;;;;;;4.35;1.27;;;9.70;85.60;;;;;;5009768;28;20034;-71
2022/01/03 09:11:39;;;;;;;3.30;1.65;;;9.70;85.60;;;;;;5008719;28;20346;-71
2022/01/03 09:14:06;;;;;;;3.83;0.55;;;9.70;85.70;;;;;;5008888;28;20050;-70
2022/01/03 09:16:33;;;;;;;3.20;0.70;;;9.70;85.80;;;;;;5009929;28;20038;-72
2022/01/03 09:19:00;;;;;;;4.93;0.85;;;9.70;85.80;;;;;;5008399;28;20038;-71
2022/01/03 09:21:28;;;;;;;3.95;0.88;;;9.60;85.90;;;;;;5009650;28;20046;-72
2022/01/03 09:24:17;;;;;;;4.47;0.98;;;9.70;85.80;;;;;;5009424;28;20515;-71
2022/01/03 09:29:30;;;;;;;7.30;1.15;;;9.70;85.60;;;;;;5009774;28;20053;-71
2022/01/03 09:31:57;;;;;;;4.38;1.15;;;9.80;85.70;;;;;;5008985;28;20052;-69
2022/01/03 09:34:24;;;;;;;4.35;0.95;;;9.80;85.50;;;;;;5010224;28;20054;-71
2022/01/03 09:36:51;;;;;;;5.57;1.10;;;9.80;85.30;;;;;;5009780;28;20931;-71
2022/01/03 09:39:18;;;;;;;4.57;0.55;;;9.90;85.30;;;;;;5010633;28;20480;-71
2022/01/03 09:42:01;;;;;;;2.65;0.93;;;9.80;85.20;;;;;;5011072;28;20054;-71
2022/01/03 09:44:33;;;;;;;1.55;0.32;;;9.90;85.00;;;;;;5010852;28;20137;-71
2022/01/03 09:47:01;;;;;;;2.70;0.55;;;9.90;84.90;;;;;;5010335;28;20515;-72
2022/01/03 09:49:33;;;;;;;;;;;9.90;84.50;;;;;;5010799;28;20053;-69
2022/01/03 09:52:00;;;;;;;4.47;0.70;;;9.90;84.40;;;;;;5009898;28;19972;-70
2022/01/03 09:54:30;;;;;;;3.15;0.60;;;10.00;84.30;;;;;;5010308;28;20049;-72
2022/01/03 09:57:01;;;;;;;8.70;1.60;;;10.00;84.20;;;;;;4992206;28;20045;-71
2022/01/03 09:59:29;;;;;;;4.28;1.00;;;10.10;84.00;;;;;;5010398;28;20055;-71
2022/01/03 10:01:58;;;;;;;6.20;1.00;;;10.10;83.90;;;;;;5007449;28;20052;-72
2022/01/03 10:04:25;;;;;;;2.53;0.95;;;10.10;83.80;;;;;;5010491;28;20182;-72
2022/01/03 10:06:53;;;;;;;3.10;0.70;;;10.10;83.80;;;;;;5011056;28;20510;-70
2022/01/03 10:09:22;;;;;;;6.18;0.73;;;10.20;83.90;;;;;;5009294;28;20054;-71
2022/01/03 10:11:50;;;;;;;4.78;0.65;;;10.20;84.00;;;;;;5010261;28;20148;-71
2022/01/03 10:14:18;;;;;;;3.47;0.90;;;10.30;83.70;;;;;;5009131;28;20053;-72
2022/01/03 10:16:47;;;;;;;6.80;0.50;;;10.30;83.70;;;;;;5010228;28;20483;-71
2022/01/03 10:19:14;;;;;;;10.20;1.25;;;10.30;83.60;;;;;;5010491;28;20042;-73
2022/01/03 10:21:44;;;;;;;3.83;0.70;;;10.40;83.60;;;;;;5010163;28;20042;-72
2022/01/03 10:24:13;;;;;;;10.57;1.00;;;10.40;83.40;;;;;;5009738;28;20050;-72
2022/01/03 10:26:42;;;;;;;3.90;0.75;;;10.40;83.40;;;;;;5009911;28;20049;-71
2022/01/03 10:29:15;;;;;;;6.00;0.60;;;10.40;83.00;;;;;;5010367;28;20038;-71
2022/01/03 10:31:45;;;;;;;6.68;1.25;;;10.50;83.00;;;;;;5009237;28;20070;-70
2022/01/03 10:34:14;;;;;;;5.70;0.75;;;10.50;82.90;;;;;;5008073;28;20161;-71
2022/01/03 10:36:44;;;;;;;5.60;0.70;;;10.50;82.70;;;;;;5007768;28;20045;-70
2022/01/03 10:39:17;;;;;;;5.50;0.80;;;10.50;82.70;;;;;;5008214;28;20352;-72
2022/01/03 10:41:45;;;;;;;5.63;0.75;;;10.50;82.70;;;;;;5007613;28;20037;-72
2022/01/03 10:44:28;;;;;;;5.32;0.75;;;10.50;82.70;;;;;;5007746;28;20053;-72
2022/01/03 10:46:57;;;;;;;5.95;0.80;;;10.50;82.70;;;;;;5007866;28;20492;-72
2022/01/03 10:49:26;;;;;;;4.47;0.50;;;10.50;82.80;;;;;;5007992;28;20121;-72
2022/01/03 10:52:11;;;;;;;8.20;0.73;;;10.60;82.90;;;;;;5008114;28;20487;-73
2022/01/03 10:54:38;;;;;;;4.57;0.73;;;10.60;82.90;;;;;;5007912;28;20141;-69
2022/01/03 10:57:05;;;;;;;6.03;1.10;;;10.60;82.90;;;;;;5007971;28;20034;-71
2022/01/03 10:59:34;;;;;;;3.25;0.75;;;10.60;82.90;;;;;;5007978;28;20129;-71
2022/01/03 11:02:06;;;;;;;3.22;0.30;;;10.60;82.90;;;;;;5005651;28;20041;-70
2022/01/03 11:04:39;;;;;;;3.78;0.77;;;10.60;82.90;;;;;;5007793;28;20129;-73
2022/01/03 11:13:12;;;;;;;5.75;0.70;;;10.60;83.10;;;;;;5008940;28;20538;-72
2022/01/03 11:15:41;;;;;;;4.93;0.80;;;10.60;83.10;;;;;;5008957;28;20558;-72
2022/01/03 11:18:12;;;;;;;4.45;1.30;;;10.50;83.20;;;;;;5009766;28;20137;-70
2022/01/03 11:20:39;;;;;;;;;;;10.60;83.20;;;;;;5009598;28;20049;-73
2022/01/03 11:23:06;;;;;;;8.38;0.90;;;10.60;83.30;;;;;;5009545;28;20247;-70
2022/01/03 11:25:35;;;;;;;7.20;1.05;;;10.60;83.30;;;;;;5008638;28;20056;-71
2022/01/03 11:28:03;;;;;;;2.10;0.50;;;10.60;83.30;;;;;;5008770;28;20143;-71
2022/01/03 11:30:31;;;;;;;3.80;0.95;;;10.60;83.50;;;;;;5009248;28;20048;-70
2022/01/03 11:33:00;;;;;;;4.47;1.40;;;10.60;83.60;;;;;;5009510;28;20042;-70
2022/01/03 11:35:29;;;;;;;7.57;1.27;;;10.60;83.70;;;;;;5009516;28;20056;-71
2022/01/03 11:37:59;;;;;;;5.93;1.15;;;10.50;83.70;;;;;;5009086;28;20049;-72
2022/01/03 11:40:27;;;;;;;4.00;1.48;;;10.60;83.90;;;;;;5009424;28;20042;-73
2022/01/03 11:42:55;;;;;;;5.63;0.82;;;10.60;83.90;;;;;;5008481;28;20089;-70
2022/01/03 11:45:23;;;;;;;6.75;1.13;;;10.50;83.90;;;;;;5009023;28;20049;-72
2022/01/03 11:47:50;;;;;;;5.07;0.70;;;10.50;83.90;;;;;;5009021;28;20041;-70
2022/01/03 11:50:18;;;;;;;4.88;0.98;;;10.50;84.00;;;;;;5009106;28;20488;-70
2022/01/03 11:52:47;;;;;;;1.52;0.70;;;10.50;84.10;;;;;;5008931;28;20074;-71
2022/01/03 11:55:16;;;;;;;8.27;0.95;;;10.50;84.20;;;;;;5011868;28;20065;-70
2022/01/03 11:57:59;;;;;;;7.57;1.23;;;10.50;84.30;;;;;;5012616;28;20500;-71
2022/01/03 12:06:04;;;;;;;5.40;0.55;;;10.40;85.20;;;;;;4999357;28;20061;-70
2022/01/03 12:08:34;;;;;;;4.95;0.77;;;10.30;85.50;;;;;;5013023;28;20053;-71
2022/01/03 12:11:02;;;;;;;4.15;0.88;;;10.30;85.70;;;;;;5011669;28;20053;-70
2022/01/03 12:13:48;;;;;;;3.80;0.95;;;10.30;85.80;;;;;;5011796;28;20049;-71
2022/01/03 12:16:16;;;;;;;3.90;0.65;;;10.30;86.00;;;;;;5010617;28;20523;-71
2022/01/03 12:18:58;;;;;;;5.82;0.77;;;10.30;86.10;;;;;;5010546;28;20075;-71
2022/01/03 12:21:49;;;;;;;4.13;0.70;;;10.20;86.20;;;;;;5011066;28;20049;-70
2022/01/03 12:24:44;;;;;;;4.75;0.57;;;10.20;86.20;;;;;;5010995;28;20411;-71
2022/01/03 12:27:32;;;;;;;5.13;0.52;;;10.20;86.20;;;;;;5010068;28;20108;-70
2022/01/03 12:30:07;;;;;;;7.38;0.90;;;10.20;86.00;;;;;;5010850;28;20041;-70
2022/01/03 12:32:35;;;;;;;5.78;1.00;;;10.20;86.20;;;;;;5010355;28;20068;-71
2022/01/03 12:35:23;;;;;;;3.45;0.40;;;10.10;86.30;;;;;;5009569;28;20050;-71
2022/01/03 12:38:14;;;;;;;2.90;0.43;;;10.10;86.30;;;;;;5010207;28;20046;-71
2022/01/03 12:40:49;;;;;;;;;;;10.10;86.10;;;;;;5010599;28;20041;-70
2022/01/03 12:43:18;;;;;;;2.10;0.47;;;10.00;86.20;;;;;;5009537;28;20060;-70
2022/01/03 12:45:55;;;;;;;3.85;0.65;;;10.10;86.20;;;;;;5009176;28;20471;-70
2022/01/03 12:48:24;;;;;;;4.60;0.65;;;10.00;85.80;;;;;;5009746;28;20050;-71
2022/01/03 12:51:22;;;;;;;1.52;0.30;;;10.00;85.90;;;;;;5010812;28;20061;-70
2022/01/03 12:53:53;;;;;;;4.28;0.60;;;10.10;86.10;;;;;;4949557;29;20050;-71
2022/01/03 12:56:29;;;;;;;2.58;0.45;;;10.00;86.30;;;;;;4999183;28;20065;-71
2022/01/03 12:58:58;;;;;;;3.10;0.77;;;10.00;86.30;;;;;;5011995;28;20044;-70
2022/01/03 13:01:30;;;;;;;4.00;0.80;;;10.00;86.40;;;;;;5009213;28;20407;-70
2022/01/03 13:04:24;;;;;;;4.10;0.68;;;10.00;86.40;;;;;;5011284;28;20050;-71
2022/01/03 13:06:51;;;;;;;5.90;0.88;;;10.00;86.70;;;;;;5010484;28;20045;-70
2022/01/03 13:09:18;;;;;;;4.10;0.82;;;10.00;86.90;;;;;;5010924;28;20185;-72
2022/01/03 13:11:49;;;;;;;1.52;0.50;;;10.10;86.70;;;;;;5011243;28;20125;-72
2022/01/03 13:14:19;;;;;;;4.22;0.43;;;10.10;86.50;;;;;;5011140;28;20050;-71
2022/01/03 13:16:48;;;;;;;0.85;0.32;;;10.00;86.50;;;;;;5011595;28;20065;-71
2022/01/03 13:19:17;;;;;;;2.40;0.68;;;10.10;86.60;;;;;;5010604;28;20480;-70
2022/01/03 13:21:47;;;;;;;4.70;1.10;;;10.00;86.80;;;;;;5012200;28;20052;-71
2022/01/03 13:24:18;;;;;;;3.47;1.30;;;10.10;87.10;;;;;;5010056;28;20049;-71
2022/01/03 13:27:09;;;;;;;3.30;0.73;;;10.10;87.40;;;;;;5011200;28;20050;-71
2022/01/03 13:29:42;;;;;;;3.53;1.38;;;10.10;87.60;;;;;;5005067;28;20061;-70
2022/01/03 13:32:10;;;;;;;8.00;1.98;;;10.20;87.60;;;;;;5010816;28;20052;-70